sensor_id;sensor_type;location;lat;lon;timestamp;P1;durP1;ratioP1;P2;durP2;ratioP2
7195;SDS011;3639;51.308;5.624;2022-08-01T00:01:56;4.60;;;3.30;;
7195;SDS011;3639;51.308;5.624;2022-08-01T00:04:22;3.40;;;2.53;;
7195;SDS011;3639;51.308;5.624;2022-08-01T00:06:48;4.30;;;3.00;;
7195;SDS011;3639;51.308;5.624;2022-08-01T00:09:14;3.40;;;2.63;;
7195;SDS011;3639;51.308;5.624;2022-08-01T00:11:40;4.83;;;3.17;;
7195;SDS011;3639;51.308;5.624;2022-08-01T00:14:07;5.37;;;3.50;;
7195;SDS011;3639;51.308;5.624;2022-08-01T00:16:34;4.67;;;2.70;;
7195;SDS011;3639;51.308;5.624;2022-08-01T00:19:01;4.00;;;2.90;;
7195;SDS011;3639;51.308;5.624;2022-08-01T00:21:26;3.70;;;3.03;;
7195;SDS011;3639;51.308;5.624;2022-08-01T00:23:52;5.47;;;3.40;;
7195;SDS011;3639;51.308;5.624;2022-08-01T00:26:18;5.97;;;3.37;;
7195;SDS011;3639;51.308;5.624;2022-08-01T00:28:44;4.47;;;3.23;;
7195;SDS011;3639;51.308;5.624;2022-08-01T00:31:10;3.00;;;2.37;;
7195;SDS011;3639;51.308;5.624;2022-08-01T00:33:36;4.57;;;3.03;;
7195;SDS011;3639;51.308;5.624;2022-08-01T00:36:02;5.87;;;3.07;;
7195;SDS011;3639;51.308;5.624;2022-08-01T00:38:28;4.23;;;3.00;;
7195;SDS011;3639;51.308;5.624;2022-08-01T00:40:54;4.63;;;3.27;;
7195;SDS011;3639;51.308;5.624;2022-08-01T00:43:20;4.50;;;2.80;;
7195;SDS011;3639;51.308;5.624;2022-08-01T00:45:46;3.70;;;2.63;;
7195;SDS011;3639;51.308;5.624;2022-08-01T00:48:12;3.77;;;2.60;;
7195;SDS011;3639;51.308;5.624;2022-08-01T00:50:38;5.03;;;3.00;;
7195;SDS011;3639;51.308;5.624;2022-08-01T00:53:04;3.80;;;3.27;;
7195;SDS011;3639;51.308;5.624;2022-08-01T00:55:31;3.53;;;2.87;;
7195;SDS011;3639;51.308;5.624;2022-08-01T00:57:58;4.50;;;3.10;;
7195;SDS011;3639;51.308;5.624;2022-08-01T01:00:25;5.27;;;3.07;;
7195;SDS011;3639;51.308;5.624;2022-08-01T01:02:51;3.50;;;2.87;;
7195;SDS011;3639;51.308;5.624;2022-08-01T01:05:17;7.13;;;3.27;;
7195;SDS011;3639;51.308;5.624;2022-08-01T01:10:15;4.30;;;3.13;;
7195;SDS011;3639;51.308;5.624;2022-08-01T01:13:16;7.30;;;3.20;;
7195;SDS011;3639;51.308;5.624;2022-08-01T01:15:54;3.67;;;2.87;;
7195;SDS011;3639;51.308;5.624;2022-08-01T01:18:27;6.87;;;3.53;;
7195;SDS011;3639;51.308;5.624;2022-08-01T01:21:13;5.53;;;4.33;;
7195;SDS011;3639;51.308;5.624;2022-08-01T01:23:44;5.57;;;3.40;;
7195;SDS011;3639;51.308;5.624;2022-08-01T01:29:20;7.87;;;4.27;;
7195;SDS011;3639;51.308;5.624;2022-08-01T01:32:02;4.73;;;3.57;;
7195;SDS011;3639;51.308;5.624;2022-08-01T01:34:51;5.77;;;3.70;;
7195;SDS011;3639;51.308;5.624;2022-08-01T01:37:20;8.63;;;3.40;;
7195;SDS011;3639;51.308;5.624;2022-08-01T01:39:49;8.77;;;3.73;;
7195;SDS011;3639;51.308;5.624;2022-08-01T01:42:17;4.80;;;3.70;;
7195;SDS011;3639;51.308;5.624;2022-08-01T01:44:45;6.03;;;4.10;;
7195;SDS011;3639;51.308;5.624;2022-08-01T01:47:13;5.43;;;3.60;;
7195;SDS011;3639;51.308;5.624;2022-08-01T01:49:41;4.27;;;3.50;;
7195;SDS011;3639;51.308;5.624;2022-08-01T01:52:10;6.47;;;4.27;;
7195;SDS011;3639;51.308;5.624;2022-08-01T01:54:40;5.87;;;3.97;;
7195;SDS011;3639;51.308;5.624;2022-08-01T01:57:10;6.03;;;4.03;;
7195;SDS011;3639;51.308;5.624;2022-08-01T01:59:38;3.77;;;3.10;;
7195;SDS011;3639;51.308;5.624;2022-08-01T02:02:06;4.77;;;3.77;;
7195;SDS011;3639;51.308;5.624;2022-08-01T02:04:35;4.80;;;3.63;;
7195;SDS011;3639;51.308;5.624;2022-08-01T02:07:03;4.93;;;3.97;;
7195;SDS011;3639;51.308;5.624;2022-08-01T02:09:31;5.13;;;3.80;;
7195;SDS011;3639;51.308;5.624;2022-08-01T02:12:00;6.37;;;4.50;;
7195;SDS011;3639;51.308;5.624;2022-08-01T02:14:28;6.27;;;4.10;;
7195;SDS011;3639;51.308;5.624;2022-08-01T02:16:55;5.73;;;4.00;;
7195;SDS011;3639;51.308;5.624;2022-08-01T02:19:22;8.17;;;4.23;;
7195;SDS011;3639;51.308;5.624;2022-08-01T02:21:56;6.40;;;4.40;;
7195;SDS011;3639;51.308;5.624;2022-08-01T02:27:06;8.47;;;5.00;;
7195;SDS011;3639;51.308;5.624;2022-08-01T02:30:08;8.57;;;3.80;;
7195;SDS011;3639;51.308;5.624;2022-08-01T02:32:38;6.40;;;3.83;;
7195;SDS011;3639;51.308;5.624;2022-08-01T02:35:09;7.03;;;4.63;;
7195;SDS011;3639;51.308;5.624;2022-08-01T02:37:39;10.50;;;5.13;;
7195;SDS011;3639;51.308;5.624;2022-08-01T02:40:08;8.90;;;5.43;;
7195;SDS011;3639;51.308;5.624;2022-08-01T02:42:36;7.63;;;5.03;;
7195;SDS011;3639;51.308;5.624;2022-08-01T02:45:04;7.33;;;4.60;;
7195;SDS011;3639;51.308;5.624;2022-08-01T02:47:33;8.20;;;5.90;;
7195;SDS011;3639;51.308;5.624;2022-08-01T02:50:01;9.83;;;5.23;;
7195;SDS011;3639;51.308;5.624;2022-08-01T02:52:27;11.63;;;5.70;;
7195;SDS011;3639;51.308;5.624;2022-08-01T02:54:55;8.97;;;5.60;;
7195;SDS011;3639;51.308;5.624;2022-08-01T02:57:22;7.03;;;5.20;;
7195;SDS011;3639;51.308;5.624;2022-08-01T02:59:50;7.47;;;5.50;;
7195;SDS011;3639;51.308;5.624;2022-08-01T03:02:17;10.60;;;5.03;;
7195;SDS011;3639;51.308;5.624;2022-08-01T03:04:45;6.87;;;4.97;;
7195;SDS011;3639;51.308;5.624;2022-08-01T03:07:13;8.90;;;5.90;;
7195;SDS011;3639;51.308;5.624;2022-08-01T03:09:42;8.73;;;5.80;;
7195;SDS011;3639;51.308;5.624;2022-08-01T03:12:17;7.53;;;5.20;;
7195;SDS011;3639;51.308;5.624;2022-08-01T03:14:47;8.83;;;5.77;;
7195;SDS011;3639;51.308;5.624;2022-08-01T03:17:14;11.13;;;6.03;;
7195;SDS011;3639;51.308;5.624;2022-08-01T03:19:41;9.53;;;6.00;;
7195;SDS011;3639;51.308;5.624;2022-08-01T03:22:11;10.70;;;5.80;;
7195;SDS011;3639;51.308;5.624;2022-08-01T03:24:40;8.20;;;5.63;;
7195;SDS011;3639;51.308;5.624;2022-08-01T03:27:08;11.40;;;6.33;;
7195;SDS011;3639;51.308;5.624;2022-08-01T03:29:35;13.77;;;7.27;;
7195;SDS011;3639;51.308;5.624;2022-08-01T03:32:02;13.53;;;6.80;;
7195;SDS011;3639;51.308;5.624;2022-08-01T03:34:29;11.70;;;6.80;;
7195;SDS011;3639;51.308;5.624;2022-08-01T03:36:57;11.83;;;6.07;;
7195;SDS011;3639;51.308;5.624;2022-08-01T03:39:30;14.27;;;6.37;;
7195;SDS011;3639;51.308;5.624;2022-08-01T03:42:01;12.57;;;6.73;;
7195;SDS011;3639;51.308;5.624;2022-08-01T03:44:32;10.03;;;6.30;;
7195;SDS011;3639;51.308;5.624;2022-08-01T03:47:04;12.30;;;6.93;;
7195;SDS011;3639;51.308;5.624;2022-08-01T03:49:33;11.23;;;7.33;;
7195;SDS011;3639;51.308;5.624;2022-08-01T03:52:03;10.70;;;5.87;;
7195;SDS011;3639;51.308;5.624;2022-08-01T03:54:33;14.10;;;7.33;;
7195;SDS011;3639;51.308;5.624;2022-08-01T03:57:02;12.00;;;7.33;;
7195;SDS011;3639;51.308;5.624;2022-08-01T03:59:34;12.33;;;7.27;;
7195;SDS011;3639;51.308;5.624;2022-08-01T04:02:01;13.23;;;7.07;;
7195;SDS011;3639;51.308;5.624;2022-08-01T04:04:28;13.37;;;7.37;;
7195;SDS011;3639;51.308;5.624;2022-08-01T04:06:54;14.67;;;7.40;;
7195;SDS011;3639;51.308;5.624;2022-08-01T04:09:21;13.97;;;7.83;;
7195;SDS011;3639;51.308;5.624;2022-08-01T04:11:47;11.73;;;6.83;;
7195;SDS011;3639;51.308;5.624;2022-08-01T04:14:14;14.57;;;7.87;;
7195;SDS011;3639;51.308;5.624;2022-08-01T04:16:40;10.97;;;7.37;;
7195;SDS011;3639;51.308;5.624;2022-08-01T04:19:05;11.80;;;6.87;;
7195;SDS011;3639;51.308;5.624;2022-08-01T04:21:32;15.23;;;8.13;;
7195;SDS011;3639;51.308;5.624;2022-08-01T04:24:01;13.83;;;7.27;;
7195;SDS011;3639;51.308;5.624;2022-08-01T04:26:36;11.93;;;7.07;;
7195;SDS011;3639;51.308;5.624;2022-08-01T04:29:03;10.90;;;7.10;;
7195;SDS011;3639;51.308;5.624;2022-08-01T04:31:31;11.93;;;7.47;;
7195;SDS011;3639;51.308;5.624;2022-08-01T04:33:59;12.87;;;7.63;;
7195;SDS011;3639;51.308;5.624;2022-08-01T04:36:27;14.87;;;7.60;;
7195;SDS011;3639;51.308;5.624;2022-08-01T04:38:56;12.40;;;7.13;;
7195;SDS011;3639;51.308;5.624;2022-08-01T04:41:25;16.73;;;7.40;;
7195;SDS011;3639;51.308;5.624;2022-08-01T04:43:52;14.47;;;8.10;;
7195;SDS011;3639;51.308;5.624;2022-08-01T04:46:19;15.70;;;7.73;;
7195;SDS011;3639;51.308;5.624;2022-08-01T04:48:46;12.07;;;7.20;;
7195;SDS011;3639;51.308;5.624;2022-08-01T04:51:14;13.40;;;7.07;;
7195;SDS011;3639;51.308;5.624;2022-08-01T04:53:41;13.97;;;7.43;;
7195;SDS011;3639;51.308;5.624;2022-08-01T04:56:11;12.90;;;7.07;;
7195;SDS011;3639;51.308;5.624;2022-08-01T04:58:39;12.23;;;6.97;;
7195;SDS011;3639;51.308;5.624;2022-08-01T05:01:06;12.70;;;7.07;;
7195;SDS011;3639;51.308;5.624;2022-08-01T05:03:32;13.67;;;7.67;;
7195;SDS011;3639;51.308;5.624;2022-08-01T05:05:58;12.80;;;7.97;;
7195;SDS011;3639;51.308;5.624;2022-08-01T05:08:24;13.83;;;8.53;;
7195;SDS011;3639;51.308;5.624;2022-08-01T05:10:50;12.37;;;7.27;;
7195;SDS011;3639;51.308;5.624;2022-08-01T05:13:17;15.63;;;8.43;;
7195;SDS011;3639;51.308;5.624;2022-08-01T05:15:44;14.47;;;8.10;;
7195;SDS011;3639;51.308;5.624;2022-08-01T05:18:09;13.70;;;8.10;;
7195;SDS011;3639;51.308;5.624;2022-08-01T05:20:36;15.23;;;8.60;;
7195;SDS011;3639;51.308;5.624;2022-08-01T05:23:03;14.80;;;8.27;;
7195;SDS011;3639;51.308;5.624;2022-08-01T05:25:29;14.10;;;8.03;;
7195;SDS011;3639;51.308;5.624;2022-08-01T05:27:55;15.07;;;7.83;;
7195;SDS011;3639;51.308;5.624;2022-08-01T05:30:21;15.43;;;7.83;;
7195;SDS011;3639;51.308;5.624;2022-08-01T05:32:47;16.33;;;8.57;;
7195;SDS011;3639;51.308;5.624;2022-08-01T05:35:13;15.50;;;7.83;;
7195;SDS011;3639;51.308;5.624;2022-08-01T05:37:39;18.43;;;8.40;;
7195;SDS011;3639;51.308;5.624;2022-08-01T05:40:05;15.63;;;8.70;;
7195;SDS011;3639;51.308;5.624;2022-08-01T05:42:33;13.57;;;8.23;;
7195;SDS011;3639;51.308;5.624;2022-08-01T05:44:59;14.47;;;7.97;;
7195;SDS011;3639;51.308;5.624;2022-08-01T05:47:25;17.73;;;9.00;;
7195;SDS011;3639;51.308;5.624;2022-08-01T05:49:51;15.00;;;8.83;;
7195;SDS011;3639;51.308;5.624;2022-08-01T05:52:18;14.57;;;8.73;;
7195;SDS011;3639;51.308;5.624;2022-08-01T05:54:44;15.73;;;8.47;;
7195;SDS011;3639;51.308;5.624;2022-08-01T05:57:10;18.13;;;9.67;;
7195;SDS011;3639;51.308;5.624;2022-08-01T05:59:36;16.00;;;8.83;;
7195;SDS011;3639;51.308;5.624;2022-08-01T06:02:02;18.53;;;9.33;;
7195;SDS011;3639;51.308;5.624;2022-08-01T06:04:28;17.27;;;8.57;;
7195;SDS011;3639;51.308;5.624;2022-08-01T06:06:54;17.10;;;9.30;;
7195;SDS011;3639;51.308;5.624;2022-08-01T06:09:20;14.43;;;8.33;;
7195;SDS011;3639;51.308;5.624;2022-08-01T06:11:46;16.60;;;9.63;;
7195;SDS011;3639;51.308;5.624;2022-08-01T06:14:13;17.90;;;9.90;;
7195;SDS011;3639;51.308;5.624;2022-08-01T06:16:38;19.27;;;9.57;;
7195;SDS011;3639;51.308;5.624;2022-08-01T06:19:04;16.10;;;8.90;;
7195;SDS011;3639;51.308;5.624;2022-08-01T06:21:30;16.97;;;9.17;;
7195;SDS011;3639;51.308;5.624;2022-08-01T06:23:56;17.33;;;9.13;;
7195;SDS011;3639;51.308;5.624;2022-08-01T06:26:23;17.27;;;9.17;;
7195;SDS011;3639;51.308;5.624;2022-08-01T06:28:49;15.40;;;8.97;;
7195;SDS011;3639;51.308;5.624;2022-08-01T06:31:15;18.37;;;10.17;;
7195;SDS011;3639;51.308;5.624;2022-08-01T06:33:41;15.23;;;8.97;;
7195;SDS011;3639;51.308;5.624;2022-08-01T06:36:08;14.93;;;9.37;;
7195;SDS011;3639;51.308;5.624;2022-08-01T06:38:34;16.27;;;9.20;;
7195;SDS011;3639;51.308;5.624;2022-08-01T06:41:01;17.50;;;9.97;;
7195;SDS011;3639;51.308;5.624;2022-08-01T06:43:27;15.97;;;8.67;;
7195;SDS011;3639;51.308;5.624;2022-08-01T06:45:54;15.80;;;8.90;;
7195;SDS011;3639;51.308;5.624;2022-08-01T06:48:23;16.17;;;8.83;;
7195;SDS011;3639;51.308;5.624;2022-08-01T06:50:49;14.83;;;8.23;;
7195;SDS011;3639;51.308;5.624;2022-08-01T06:53:33;13.87;;;9.03;;
7195;SDS011;3639;51.308;5.624;2022-08-01T06:55:59;13.27;;;7.43;;
7195;SDS011;3639;51.308;5.624;2022-08-01T06:58:26;10.17;;;6.70;;
7195;SDS011;3639;51.308;5.624;2022-08-01T07:00:52;11.03;;;5.90;;
7195;SDS011;3639;51.308;5.624;2022-08-01T07:03:18;9.93;;;6.50;;
7195;SDS011;3639;51.308;5.624;2022-08-01T07:05:44;11.30;;;6.63;;
7195;SDS011;3639;51.308;5.624;2022-08-01T07:08:10;10.27;;;5.37;;
7195;SDS011;3639;51.308;5.624;2022-08-01T07:10:36;9.53;;;5.43;;
7195;SDS011;3639;51.308;5.624;2022-08-01T07:13:02;8.53;;;4.87;;
7195;SDS011;3639;51.308;5.624;2022-08-01T07:15:30;8.93;;;5.20;;
7195;SDS011;3639;51.308;5.624;2022-08-01T07:17:56;8.33;;;5.23;;
7195;SDS011;3639;51.308;5.624;2022-08-01T07:20:28;7.63;;;4.83;;
7195;SDS011;3639;51.308;5.624;2022-08-01T07:22:55;6.33;;;4.10;;
7195;SDS011;3639;51.308;5.624;2022-08-01T07:25:21;5.23;;;3.67;;
7195;SDS011;3639;51.308;5.624;2022-08-01T07:27:49;6.83;;;4.00;;
7195;SDS011;3639;51.308;5.624;2022-08-01T07:30:15;8.43;;;4.50;;
7195;SDS011;3639;51.308;5.624;2022-08-01T07:32:41;6.40;;;3.57;;
7195;SDS011;3639;51.308;5.624;2022-08-01T07:35:07;5.20;;;2.97;;
7195;SDS011;3639;51.308;5.624;2022-08-01T07:37:33;7.47;;;3.70;;
7195;SDS011;3639;51.308;5.624;2022-08-01T07:39:59;4.63;;;3.27;;
7195;SDS011;3639;51.308;5.624;2022-08-01T07:42:25;7.03;;;4.00;;
7195;SDS011;3639;51.308;5.624;2022-08-01T07:44:51;8.10;;;4.10;;
7195;SDS011;3639;51.308;5.624;2022-08-01T07:47:23;5.03;;;3.47;;
7195;SDS011;3639;51.308;5.624;2022-08-01T07:49:50;5.37;;;3.20;;
7195;SDS011;3639;51.308;5.624;2022-08-01T07:52:16;4.53;;;3.20;;
7195;SDS011;3639;51.308;5.624;2022-08-01T07:54:42;6.97;;;3.70;;
7195;SDS011;3639;51.308;5.624;2022-08-01T07:57:08;9.57;;;4.10;;
7195;SDS011;3639;51.308;5.624;2022-08-01T07:59:34;5.57;;;3.30;;
7195;SDS011;3639;51.308;5.624;2022-08-01T08:02:00;5.57;;;3.43;;
7195;SDS011;3639;51.308;5.624;2022-08-01T08:04:26;5.23;;;3.00;;
7195;SDS011;3639;51.308;5.624;2022-08-01T08:06:53;3.97;;;2.40;;
7195;SDS011;3639;51.308;5.624;2022-08-01T08:09:19;2.07;;;1.63;;
7195;SDS011;3639;51.308;5.624;2022-08-01T08:11:46;2.17;;;1.50;;
7195;SDS011;3639;51.308;5.624;2022-08-01T08:14:12;2.00;;;1.40;;
7195;SDS011;3639;51.308;5.624;2022-08-01T08:16:38;2.00;;;1.37;;
7195;SDS011;3639;51.308;5.624;2022-08-01T08:19:04;2.77;;;1.90;;
7195;SDS011;3639;51.308;5.624;2022-08-01T08:21:30;3.80;;;2.37;;
7195;SDS011;3639;51.308;5.624;2022-08-01T08:23:56;3.23;;;2.23;;
7195;SDS011;3639;51.308;5.624;2022-08-01T08:26:40;1.90;;;1.57;;
7195;SDS011;3639;51.308;5.624;2022-08-01T08:29:06;2.03;;;1.13;;
7195;SDS011;3639;51.308;5.624;2022-08-01T08:31:32;2.25;;;1.25;;
7195;SDS011;3639;51.308;5.624;2022-08-01T08:33:58;1.88;;;1.42;;
7195;SDS011;3639;51.308;5.624;2022-08-01T08:36:24;2.43;;;1.80;;
7195;SDS011;3639;51.308;5.624;2022-08-01T08:38:50;3.38;;;1.77;;
7195;SDS011;3639;51.308;5.624;2022-08-01T08:41:16;2.58;;;1.48;;
7195;SDS011;3639;51.308;5.624;2022-08-01T08:43:42;1.63;;;1.33;;
7195;SDS011;3639;51.308;5.624;2022-08-01T08:46:08;1.70;;;1.40;;
7195;SDS011;3639;51.308;5.624;2022-08-01T08:48:36;2.20;;;1.77;;
7195;SDS011;3639;51.308;5.624;2022-08-01T08:51:04;2.15;;;1.60;;
7195;SDS011;3639;51.308;5.624;2022-08-01T08:53:31;6.32;;;1.90;;
7195;SDS011;3639;51.308;5.624;2022-08-01T08:55:58;2.80;;;1.70;;
7195;SDS011;3639;51.308;5.624;2022-08-01T08:58:25;2.55;;;1.50;;
7195;SDS011;3639;51.308;5.624;2022-08-01T09:00:53;2.33;;;1.60;;
7195;SDS011;3639;51.308;5.624;2022-08-01T09:03:19;2.45;;;1.75;;
7195;SDS011;3639;51.308;5.624;2022-08-01T09:05:45;2.85;;;1.67;;
7195;SDS011;3639;51.308;5.624;2022-08-01T09:08:11;2.30;;;1.70;;
7195;SDS011;3639;51.308;5.624;2022-08-01T09:10:37;2.03;;;1.50;;
7195;SDS011;3639;51.308;5.624;2022-08-01T09:15:43;1.60;;;1.33;;
7195;SDS011;3639;51.308;5.624;2022-08-01T09:18:30;1.55;;;1.40;;
7195;SDS011;3639;51.308;5.624;2022-08-01T09:21:17;3.00;;;1.25;;
7195;SDS011;3639;51.308;5.624;2022-08-01T09:23:51;2.17;;;1.50;;
7195;SDS011;3639;51.308;5.624;2022-08-01T09:26:19;1.50;;;1.20;;
7195;SDS011;3639;51.308;5.624;2022-08-01T09:29:00;1.95;;;1.45;;
7195;SDS011;3639;51.308;5.624;2022-08-01T09:31:29;1.38;;;1.25;;
7195;SDS011;3639;51.308;5.624;2022-08-01T09:33:56;1.95;;;1.50;;
7195;SDS011;3639;51.308;5.624;2022-08-01T09:36:24;1.83;;;1.45;;
7195;SDS011;3639;51.308;5.624;2022-08-01T09:38:53;2.38;;;1.52;;
7195;SDS011;3639;51.308;5.624;2022-08-01T09:41:31;2.03;;;1.50;;
7195;SDS011;3639;51.308;5.624;2022-08-01T09:43:57;1.88;;;1.55;;
7195;SDS011;3639;51.308;5.624;2022-08-01T09:46:24;2.03;;;1.80;;
7195;SDS011;3639;51.308;5.624;2022-08-01T09:51:29;1.60;;;1.50;;
7195;SDS011;3639;51.308;5.624;2022-08-01T09:54:02;2.50;;;1.70;;
7195;SDS011;3639;51.308;5.624;2022-08-01T09:56:37;2.33;;;1.98;;
7195;SDS011;3639;51.308;5.624;2022-08-01T09:59:04;3.00;;;2.70;;
7195;SDS011;3639;51.308;5.624;2022-08-01T10:01:47;2.95;;;2.65;;
7195;SDS011;3639;51.308;5.624;2022-08-01T10:04:15;2.60;;;2.38;;
7195;SDS011;3639;51.308;5.624;2022-08-01T10:06:49;3.70;;;2.53;;
7195;SDS011;3639;51.308;5.624;2022-08-01T10:09:28;2.85;;;2.17;;
7195;SDS011;3639;51.308;5.624;2022-08-01T10:11:56;2.22;;;2.03;;
7195;SDS011;3639;51.308;5.624;2022-08-01T10:14:24;2.22;;;1.95;;
7195;SDS011;3639;51.308;5.624;2022-08-01T10:16:52;2.50;;;2.30;;
7195;SDS011;3639;51.308;5.624;2022-08-01T10:19:21;2.40;;;2.20;;
7195;SDS011;3639;51.308;5.624;2022-08-01T10:21:50;1.73;;;1.60;;
7195;SDS011;3639;51.308;5.624;2022-08-01T10:24:19;2.20;;;2.00;;
7195;SDS011;3639;51.308;5.624;2022-08-01T10:26:54;1.95;;;1.83;;
7195;SDS011;3639;51.308;5.624;2022-08-01T10:29:28;2.75;;;1.83;;
7195;SDS011;3639;51.308;5.624;2022-08-01T10:32:07;2.15;;;1.83;;
7195;SDS011;3639;51.308;5.624;2022-08-01T10:34:35;1.58;;;1.40;;
7195;SDS011;3639;51.308;5.624;2022-08-01T10:37:03;1.40;;;1.30;;
7195;SDS011;3639;51.308;5.624;2022-08-01T10:39:33;1.73;;;1.63;;
7195;SDS011;3639;51.308;5.624;2022-08-01T10:41:59;1.70;;;1.60;;
7195;SDS011;3639;51.308;5.624;2022-08-01T10:44:27;1.55;;;1.45;;
7195;SDS011;3639;51.308;5.624;2022-08-01T10:46:55;1.40;;;1.30;;
7195;SDS011;3639;51.308;5.624;2022-08-01T10:49:27;1.33;;;1.23;;
7195;SDS011;3639;51.308;5.624;2022-08-01T10:51:56;2.00;;;1.30;;
7195;SDS011;3639;51.308;5.624;2022-08-01T10:54:26;1.40;;;1.30;;
7195;SDS011;3639;51.308;5.624;2022-08-01T10:56:52;2.30;;;1.02;;
7195;SDS011;3639;51.308;5.624;2022-08-01T10:59:25;1.33;;;1.17;;
7195;SDS011;3639;51.308;5.624;2022-08-01T11:02:02;1.52;;;1.30;;
7195;SDS011;3639;51.308;5.624;2022-08-01T11:04:51;1.13;;;1.02;;
7195;SDS011;3639;51.308;5.624;2022-08-01T11:08:02;0.90;;;0.90;;
7195;SDS011;3639;51.308;5.624;2022-08-01T11:13:06;1.10;;;1.00;;
7195;SDS011;3639;51.308;5.624;2022-08-01T11:15:36;1.15;;;1.05;;
7195;SDS011;3639;51.308;5.624;2022-08-01T11:21:15;1.23;;;0.80;;
7195;SDS011;3639;51.308;5.624;2022-08-01T11:23:48;1.10;;;1.00;;
7195;SDS011;3639;51.308;5.624;2022-08-01T11:26:17;1.10;;;1.00;;
7195;SDS011;3639;51.308;5.624;2022-08-01T11:28:43;1.17;;;0.98;;
7195;SDS011;3639;51.308;5.624;2022-08-01T11:41:15;1.38;;;1.15;;
7195;SDS011;3639;51.308;5.624;2022-08-01T11:44:01;1.00;;;0.90;;
7195;SDS011;3639;51.308;5.624;2022-08-01T11:46:51;0.90;;;0.80;;
7195;SDS011;3639;51.308;5.624;2022-08-01T11:52:17;1.10;;;1.00;;
7195;SDS011;3639;51.308;5.624;2022-08-01T11:54:50;2.47;;;1.30;;
7195;SDS011;3639;51.308;5.624;2022-08-01T11:57:30;1.30;;;1.10;;
7195;SDS011;3639;51.308;5.624;2022-08-01T12:02:34;1.70;;;1.38;;
7195;SDS011;3639;51.308;5.624;2022-08-01T12:05:01;1.55;;;1.20;;
7195;SDS011;3639;51.308;5.624;2022-08-01T12:07:30;1.50;;;1.33;;
7195;SDS011;3639;51.308;5.624;2022-08-01T12:12:26;1.58;;;1.13;;
7195;SDS011;3639;51.308;5.624;2022-08-01T12:14:54;1.40;;;1.17;;
7195;SDS011;3639;51.308;5.624;2022-08-01T12:17:38;1.60;;;1.30;;
7195;SDS011;3639;51.308;5.624;2022-08-01T12:20:07;6.00;;;2.30;;
7195;SDS011;3639;51.308;5.624;2022-08-01T12:22:54;1.65;;;0.95;;
7195;SDS011;3639;51.308;5.624;2022-08-01T12:25:21;1.65;;;1.20;;
7195;SDS011;3639;51.308;5.624;2022-08-01T12:27:47;3.22;;;1.40;;
7195;SDS011;3639;51.308;5.624;2022-08-01T12:30:15;1.67;;;1.20;;
7195;SDS011;3639;51.308;5.624;2022-08-01T12:32:46;2.42;;;1.30;;
7195;SDS011;3639;51.308;5.624;2022-08-01T12:35:19;1.92;;;1.08;;
7195;SDS011;3639;51.308;5.624;2022-08-01T12:37:49;1.05;;;0.95;;
7195;SDS011;3639;51.308;5.624;2022-08-01T12:40:26;1.23;;;1.10;;
7195;SDS011;3639;51.308;5.624;2022-08-01T12:42:57;1.60;;;1.10;;
7195;SDS011;3639;51.308;5.624;2022-08-01T12:45:25;1.10;;;1.00;;
7195;SDS011;3639;51.308;5.624;2022-08-01T12:47:54;2.10;;;1.20;;
7195;SDS011;3639;51.308;5.624;2022-08-01T12:50:23;1.02;;;0.90;;
7195;SDS011;3639;51.308;5.624;2022-08-01T12:52:50;1.50;;;1.30;;
7195;SDS011;3639;51.308;5.624;2022-08-01T12:55:17;1.63;;;1.20;;
7195;SDS011;3639;51.308;5.624;2022-08-01T12:57:49;1.30;;;1.05;;
7195;SDS011;3639;51.308;5.624;2022-08-01T13:00:18;1.45;;;1.08;;
7195;SDS011;3639;51.308;5.624;2022-08-01T13:02:50;1.50;;;1.05;;
7195;SDS011;3639;51.308;5.624;2022-08-01T13:05:26;1.08;;;0.98;;
7195;SDS011;3639;51.308;5.624;2022-08-01T13:07:52;1.38;;;1.05;;
7195;SDS011;3639;51.308;5.624;2022-08-01T13:10:28;1.20;;;1.10;;
7195;SDS011;3639;51.308;5.624;2022-08-01T13:12:56;1.30;;;1.20;;
7195;SDS011;3639;51.308;5.624;2022-08-01T13:17:57;1.42;;;1.20;;
7195;SDS011;3639;51.308;5.624;2022-08-01T13:20:28;1.13;;;0.98;;
7195;SDS011;3639;51.308;5.624;2022-08-01T13:23:09;2.88;;;1.45;;
7195;SDS011;3639;51.308;5.624;2022-08-01T13:25:48;2.75;;;1.00;;
7195;SDS011;3639;51.308;5.624;2022-08-01T13:28:15;2.00;;;1.05;;
7195;SDS011;3639;51.308;5.624;2022-08-01T13:33:42;1.20;;;1.10;;
7195;SDS011;3639;51.308;5.624;2022-08-01T13:36:09;1.45;;;1.10;;
7195;SDS011;3639;51.308;5.624;2022-08-01T13:38:36;1.15;;;0.95;;
7195;SDS011;3639;51.308;5.624;2022-08-01T13:41:20;1.58;;;1.10;;
7195;SDS011;3639;51.308;5.624;2022-08-01T13:43:48;1.30;;;1.00;;
7195;SDS011;3639;51.308;5.624;2022-08-01T13:46:14;1.67;;;1.15;;
7195;SDS011;3639;51.308;5.624;2022-08-01T13:48:40;2.10;;;1.30;;
7195;SDS011;3639;51.308;5.624;2022-08-01T13:51:06;1.40;;;1.17;;
7195;SDS011;3639;51.308;5.624;2022-08-01T13:53:32;2.05;;;1.05;;
7195;SDS011;3639;51.308;5.624;2022-08-01T13:55:58;3.45;;;1.00;;
7195;SDS011;3639;51.308;5.624;2022-08-01T13:58:24;1.08;;;0.90;;
7195;SDS011;3639;51.308;5.624;2022-08-01T14:00:51;1.10;;;1.00;;
7195;SDS011;3639;51.308;5.624;2022-08-01T14:03:17;1.42;;;1.15;;
7195;SDS011;3639;51.308;5.624;2022-08-01T14:05:44;1.02;;;0.93;;
7195;SDS011;3639;51.308;5.624;2022-08-01T14:08:11;0.88;;;0.80;;
7195;SDS011;3639;51.308;5.624;2022-08-01T14:10:38;2.00;;;1.17;;
7195;SDS011;3639;51.308;5.624;2022-08-01T14:13:03;1.55;;;0.93;;
7195;SDS011;3639;51.308;5.624;2022-08-01T14:15:30;1.23;;;1.02;;
7195;SDS011;3639;51.308;5.624;2022-08-01T14:17:57;1.50;;;1.30;;
7195;SDS011;3639;51.308;5.624;2022-08-01T14:20:23;1.27;;;1.00;;
7195;SDS011;3639;51.308;5.624;2022-08-01T14:22:48;1.13;;;0.93;;
7195;SDS011;3639;51.308;5.624;2022-08-01T14:25:15;2.10;;;1.20;;
7195;SDS011;3639;51.308;5.624;2022-08-01T14:27:43;1.10;;;1.00;;
7195;SDS011;3639;51.308;5.624;2022-08-01T14:30:10;1.42;;;1.00;;
7195;SDS011;3639;51.308;5.624;2022-08-01T14:32:37;1.50;;;1.20;;
7195;SDS011;3639;51.308;5.624;2022-08-01T14:35:04;1.85;;;1.40;;
7195;SDS011;3639;51.308;5.624;2022-08-01T14:37:31;2.53;;;1.25;;
7195;SDS011;3639;51.308;5.624;2022-08-01T14:39:58;1.40;;;1.30;;
7195;SDS011;3639;51.308;5.624;2022-08-01T14:42:29;1.60;;;1.30;;
7195;SDS011;3639;51.308;5.624;2022-08-01T14:44:56;1.42;;;1.10;;
7195;SDS011;3639;51.308;5.624;2022-08-01T14:47:22;2.13;;;1.42;;
7195;SDS011;3639;51.308;5.624;2022-08-01T14:49:48;1.60;;;1.20;;
7195;SDS011;3639;51.308;5.624;2022-08-01T14:52:15;2.65;;;1.85;;
7195;SDS011;3639;51.308;5.624;2022-08-01T14:54:41;1.27;;;1.17;;
7195;SDS011;3639;51.308;5.624;2022-08-01T14:57:07;1.58;;;1.17;;
7195;SDS011;3639;51.308;5.624;2022-08-01T14:59:33;3.00;;;1.33;;
7195;SDS011;3639;51.308;5.624;2022-08-01T15:02:00;2.28;;;1.50;;
7195;SDS011;3639;51.308;5.624;2022-08-01T15:04:26;1.77;;;1.02;;
7195;SDS011;3639;51.308;5.624;2022-08-01T15:06:51;1.80;;;1.38;;
7195;SDS011;3639;51.308;5.624;2022-08-01T15:09:17;2.03;;;1.30;;
7195;SDS011;3639;51.308;5.624;2022-08-01T15:11:43;2.22;;;1.17;;
7195;SDS011;3639;51.308;5.624;2022-08-01T15:14:11;2.17;;;1.30;;
7195;SDS011;3639;51.308;5.624;2022-08-01T15:16:55;2.58;;;1.67;;
7195;SDS011;3639;51.308;5.624;2022-08-01T15:19:21;4.25;;;1.33;;
7195;SDS011;3639;51.308;5.624;2022-08-01T15:21:47;2.10;;;1.55;;
7195;SDS011;3639;51.308;5.624;2022-08-01T15:24:13;2.95;;;1.63;;
7195;SDS011;3639;51.308;5.624;2022-08-01T15:26:39;1.90;;;1.45;;
7195;SDS011;3639;51.308;5.624;2022-08-01T15:29:05;2.20;;;1.42;;
7195;SDS011;3639;51.308;5.624;2022-08-01T15:31:30;1.50;;;1.40;;
7195;SDS011;3639;51.308;5.624;2022-08-01T15:33:57;1.60;;;1.40;;
7195;SDS011;3639;51.308;5.624;2022-08-01T15:36:23;2.17;;;1.50;;
7195;SDS011;3639;51.308;5.624;2022-08-01T15:38:49;1.90;;;1.42;;
7195;SDS011;3639;51.308;5.624;2022-08-01T15:41:15;1.92;;;1.50;;
7195;SDS011;3639;51.308;5.624;2022-08-01T15:43:40;2.30;;;1.73;;
7195;SDS011;3639;51.308;5.624;2022-08-01T15:46:06;2.90;;;1.33;;
7195;SDS011;3639;51.308;5.624;2022-08-01T15:48:32;2.10;;;1.40;;
7195;SDS011;3639;51.308;5.624;2022-08-01T15:50:58;3.05;;;1.40;;
7195;SDS011;3639;51.308;5.624;2022-08-01T15:53:24;1.27;;;1.10;;
7195;SDS011;3639;51.308;5.624;2022-08-01T15:55:50;4.55;;;1.65;;
7195;SDS011;3639;51.308;5.624;2022-08-01T15:58:15;1.90;;;1.35;;
7195;SDS011;3639;51.308;5.624;2022-08-01T16:00:41;1.30;;;1.20;;
7195;SDS011;3639;51.308;5.624;2022-08-01T16:03:07;1.42;;;1.33;;
7195;SDS011;3639;51.308;5.624;2022-08-01T16:05:34;1.63;;;1.20;;